sensor_id;sensor_type;location;lat;lon;timestamp;temperature;humidity
8565;DHT22;4320;51.498;6.556;2023-03-16T00:00:50;5.80;1.00
8565;DHT22;4320;51.498;6.556;2023-03-16T00:03:19;5.80;1.00
8565;DHT22;4320;51.498;6.556;2023-03-16T00:05:49;5.80;1.00
8565;DHT22;4320;51.498;6.556;2023-03-16T00:08:15;5.80;1.00
8565;DHT22;4320;51.498;6.556;2023-03-16T00:10:41;5.80;1.00
8565;DHT22;4320;51.498;6.556;2023-03-16T00:13:15;5.70;1.00
8565;DHT22;4320;51.498;6.556;2023-03-16T00:15:48;5.70;1.00
8565;DHT22;4320;51.498;6.556;2023-03-16T00:18:14;5.70;1.00
8565;DHT22;4320;51.498;6.556;2023-03-16T00:20:40;5.70;1.00
8565;DHT22;4320;51.498;6.556;2023-03-16T00:23:06;5.70;1.00
8565;DHT22;4320;51.498;6.556;2023-03-16T00:25:31;5.70;1.00
8565;DHT22;4320;51.498;6.556;2023-03-16T00:27:59;5.70;1.00
8565;DHT22;4320;51.498;6.556;2023-03-16T00:30:28;5.60;1.00
8565;DHT22;4320;51.498;6.556;2023-03-16T00:32:54;5.60;1.00
8565;DHT22;4320;51.498;6.556;2023-03-16T00:35:20;5.60;1.00
8565;DHT22;4320;51.498;6.556;2023-03-16T00:37:46;5.60;1.00
8565;DHT22;4320;51.498;6.556;2023-03-16T00:40:11;5.60;1.00
8565;DHT22;4320;51.498;6.556;2023-03-16T00:42:37;5.60;1.00
8565;DHT22;4320;51.498;6.556;2023-03-16T00:45:03;5.70;1.00
8565;DHT22;4320;51.498;6.556;2023-03-16T00:47:31;5.70;1.00
8565;DHT22;4320;51.498;6.556;2023-03-16T00:49:58;5.70;1.00
8565;DHT22;4320;51.498;6.556;2023-03-16T00:52:24;5.70;1.00
8565;DHT22;4320;51.498;6.556;2023-03-16T00:54:53;5.70;1.00
8565;DHT22;4320;51.498;6.556;2023-03-16T00:57:19;5.70;1.00
8565;DHT22;4320;51.498;6.556;2023-03-16T00:59:46;5.70;1.00
8565;DHT22;4320;51.498;6.556;2023-03-16T01:02:12;5.70;1.00
8565;DHT22;4320;51.498;6.556;2023-03-16T01:04:39;5.70;1.00
8565;DHT22;4320;51.498;6.556;2023-03-16T01:07:07;5.70;1.00
8565;DHT22;4320;51.498;6.556;2023-03-16T01:09:33;5.70;1.00
8565;DHT22;4320;51.498;6.556;2023-03-16T01:12:06;5.70;1.00
8565;DHT22;4320;51.498;6.556;2023-03-16T01:14:34;5.70;1.00
8565;DHT22;4320;51.498;6.556;2023-03-16T01:17:00;5.70;1.00
8565;DHT22;4320;51.498;6.556;2023-03-16T01:19:27;5.70;1.00
8565;DHT22;4320;51.498;6.556;2023-03-16T01:21:53;5.70;1.00
8565;DHT22;4320;51.498;6.556;2023-03-16T01:24:18;5.70;1.00
8565;DHT22;4320;51.498;6.556;2023-03-16T01:26:44;5.70;1.00
8565;DHT22;4320;51.498;6.556;2023-03-16T01:29:10;5.70;1.00
8565;DHT22;4320;51.498;6.556;2023-03-16T01:31:37;5.70;1.00
8565;DHT22;4320;51.498;6.556;2023-03-16T01:34:03;5.70;1.00
8565;DHT22;4320;51.498;6.556;2023-03-16T01:36:29;5.70;1.00
8565;DHT22;4320;51.498;6.556;2023-03-16T01:38:57;5.70;1.00
8565;DHT22;4320;51.498;6.556;2023-03-16T01:41:23;5.70;1.00
8565;DHT22;4320;51.498;6.556;2023-03-16T01:43:50;5.70;1.00
8565;DHT22;4320;51.498;6.556;2023-03-16T01:46:24;5.70;1.00
8565;DHT22;4320;51.498;6.556;2023-03-16T01:51:45;5.60;1.00
8565;DHT22;4320;51.498;6.556;2023-03-16T01:59:38;5.70;1.00
8565;DHT22;4320;51.498;6.556;2023-03-16T02:02:04;5.70;1.00
8565;DHT22;4320;51.498;6.556;2023-03-16T02:04:54;5.70;1.00
8565;DHT22;4320;51.498;6.556;2023-03-16T02:07:23;5.70;1.00
8565;DHT22;4320;51.498;6.556;2023-03-16T02:09:51;5.70;1.00
8565;DHT22;4320;51.498;6.556;2023-03-16T02:12:19;5.60;1.00
8565;DHT22;4320;51.498;6.556;2023-03-16T02:14:48;5.60;1.00
8565;DHT22;4320;51.498;6.556;2023-03-16T02:17:17;5.70;1.00
8565;DHT22;4320;51.498;6.556;2023-03-16T02:19:59;5.70;1.00
8565;DHT22;4320;51.498;6.556;2023-03-16T02:22:31;5.70;1.00
8565;DHT22;4320;51.498;6.556;2023-03-16T02:25:00;5.60;1.00
8565;DHT22;4320;51.498;6.556;2023-03-16T02:27:31;5.60;1.00
8565;DHT22;4320;51.498;6.556;2023-03-16T02:30:21;5.60;1.00
8565;DHT22;4320;51.498;6.556;2023-03-16T02:32:48;5.70;1.00
8565;DHT22;4320;51.498;6.556;2023-03-16T02:35:17;5.70;1.00
8565;DHT22;4320;51.498;6.556;2023-03-16T02:37:42;5.70;1.00
8565;DHT22;4320;51.498;6.556;2023-03-16T02:42:40;5.60;1.00
8565;DHT22;4320;51.498;6.556;2023-03-16T02:45:07;5.60;1.00
8565;DHT22;4320;51.498;6.556;2023-03-16T02:47:36;5.60;1.00
8565;DHT22;4320;51.498;6.556;2023-03-16T02:50:03;5.60;1.00
8565;DHT22;4320;51.498;6.556;2023-03-16T02:52:33;5.60;1.00
8565;DHT22;4320;51.498;6.556;2023-03-16T02:54:59;5.60;1.00
8565;DHT22;4320;51.498;6.556;2023-03-16T02:57:25;5.60;1.00
8565;DHT22;4320;51.498;6.556;2023-03-16T02:59:50;5.50;1.00
8565;DHT22;4320;51.498;6.556;2023-03-16T03:02:16;5.60;1.00
8565;DHT22;4320;51.498;6.556;2023-03-16T03:04:42;5.60;1.00
8565;DHT22;4320;51.498;6.556;2023-03-16T03:07:14;5.60;1.00
8565;DHT22;4320;51.498;6.556;2023-03-16T03:09:41;5.60;1.00
8565;DHT22;4320;51.498;6.556;2023-03-16T03:12:10;5.60;1.00
8565;DHT22;4320;51.498;6.556;2023-03-16T03:14:36;5.60;1.00
8565;DHT22;4320;51.498;6.556;2023-03-16T03:17:08;5.60;1.00
8565;DHT22;4320;51.498;6.556;2023-03-16T03:19:35;5.70;1.00
8565;DHT22;4320;51.498;6.556;2023-03-16T03:22:03;5.60;1.00
8565;DHT22;4320;51.498;6.556;2023-03-16T03:24:31;5.60;1.00
8565;DHT22;4320;51.498;6.556;2023-03-16T03:26:57;5.60;1.00
8565;DHT22;4320;51.498;6.556;2023-03-16T03:29:30;5.60;1.00
8565;DHT22;4320;51.498;6.556;2023-03-16T03:32:03;5.60;1.00
8565;DHT22;4320;51.498;6.556;2023-03-16T03:34:30;5.60;1.00
8565;DHT22;4320;51.498;6.556;2023-03-16T03:36:56;5.60;1.00
8565;DHT22;4320;51.498;6.556;2023-03-16T03:39:22;5.60;1.00
8565;DHT22;4320;51.498;6.556;2023-03-16T03:41:48;5.60;1.00
8565;DHT22;4320;51.498;6.556;2023-03-16T03:44:13;5.60;1.00
8565;DHT22;4320;51.498;6.556;2023-03-16T03:46:39;5.60;1.00
8565;DHT22;4320;51.498;6.556;2023-03-16T03:49:05;5.60;1.00
8565;DHT22;4320;51.498;6.556;2023-03-16T03:51:31;5.70;1.00
8565;DHT22;4320;51.498;6.556;2023-03-16T03:53:58;5.70;1.00
8565;DHT22;4320;51.498;6.556;2023-03-16T03:56:24;5.70;1.00
8565;DHT22;4320;51.498;6.556;2023-03-16T03:58:50;5.70;1.00
8565;DHT22;4320;51.498;6.556;2023-03-16T04:01:16;5.60;1.00
8565;DHT22;4320;51.498;6.556;2023-03-16T04:03:42;5.60;1.00
8565;DHT22;4320;51.498;6.556;2023-03-16T04:06:07;5.70;1.00
8565;DHT22;4320;51.498;6.556;2023-03-16T04:08:34;5.60;1.00
8565;DHT22;4320;51.498;6.556;2023-03-16T04:10:59;5.70;1.00
8565;DHT22;4320;51.498;6.556;2023-03-16T04:13:25;5.70;1.00
8565;DHT22;4320;51.498;6.556;2023-03-16T04:15:59;5.70;1.00
8565;DHT22;4320;51.498;6.556;2023-03-16T04:18:27;5.70;1.00
8565;DHT22;4320;51.498;6.556;2023-03-16T04:20:53;5.70;1.00
8565;DHT22;4320;51.498;6.556;2023-03-16T04:23:19;5.70;1.00
8565;DHT22;4320;51.498;6.556;2023-03-16T04:25:45;5.70;1.00
8565;DHT22;4320;51.498;6.556;2023-03-16T04:28:11;5.70;1.00
8565;DHT22;4320;51.498;6.556;2023-03-16T04:30:37;5.70;1.00
8565;DHT22;4320;51.498;6.556;2023-03-16T04:33:02;5.70;1.00
8565;DHT22;4320;51.498;6.556;2023-03-16T04:35:29;5.70;1.00
8565;DHT22;4320;51.498;6.556;2023-03-16T04:37:54;5.70;1.00
8565;DHT22;4320;51.498;6.556;2023-03-16T04:40:20;5.70;1.00
8565;DHT22;4320;51.498;6.556;2023-03-16T04:42:46;5.70;1.00
8565;DHT22;4320;51.498;6.556;2023-03-16T04:45:13;5.60;1.00
8565;DHT22;4320;51.498;6.556;2023-03-16T04:47:39;5.60;1.00
8565;DHT22;4320;51.498;6.556;2023-03-16T04:50:05;5.60;1.00
8565;DHT22;4320;51.498;6.556;2023-03-16T04:52:31;5.60;1.00
8565;DHT22;4320;51.498;6.556;2023-03-16T04:54:57;5.60;1.00
8565;DHT22;4320;51.498;6.556;2023-03-16T04:57:22;5.60;1.00
8565;DHT22;4320;51.498;6.556;2023-03-16T04:59:48;5.60;1.00
8565;DHT22;4320;51.498;6.556;2023-03-16T05:02:14;5.70;1.00
8565;DHT22;4320;51.498;6.556;2023-03-16T05:04:41;5.60;1.00
8565;DHT22;4320;51.498;6.556;2023-03-16T05:07:06;5.70;1.00
8565;DHT22;4320;51.498;6.556;2023-03-16T05:09:32;5.60;1.00
8565;DHT22;4320;51.498;6.556;2023-03-16T05:11:58;5.60;1.00
8565;DHT22;4320;51.498;6.556;2023-03-16T05:14:23;5.60;1.00
8565;DHT22;4320;51.498;6.556;2023-03-16T05:16:49;5.60;1.00
8565;DHT22;4320;51.498;6.556;2023-03-16T05:19:16;5.60;1.00
8565;DHT22;4320;51.498;6.556;2023-03-16T05:21:42;5.60;1.00
8565;DHT22;4320;51.498;6.556;2023-03-16T05:24:08;5.60;1.00
8565;DHT22;4320;51.498;6.556;2023-03-16T05:26:33;5.60;1.00
8565;DHT22;4320;51.498;6.556;2023-03-16T05:28:59;5.60;1.00
8565;DHT22;4320;51.498;6.556;2023-03-16T05:31:26;5.70;1.00
8565;DHT22;4320;51.498;6.556;2023-03-16T05:33:52;5.60;1.00
8565;DHT22;4320;51.498;6.556;2023-03-16T05:36:18;5.60;1.00
8565;DHT22;4320;51.498;6.556;2023-03-16T05:38:44;5.60;1.00
8565;DHT22;4320;51.498;6.556;2023-03-16T05:41:10;5.60;1.00
8565;DHT22;4320;51.498;6.556;2023-03-16T05:43:36;5.60;1.00
8565;DHT22;4320;51.498;6.556;2023-03-16T05:46:02;5.70;1.00
8565;DHT22;4320;51.498;6.556;2023-03-16T05:48:28;5.80;1.00
8565;DHT22;4320;51.498;6.556;2023-03-16T05:50:54;5.70;1.00
8565;DHT22;4320;51.498;6.556;2023-03-16T05:53:19;5.70;1.00
8565;DHT22;4320;51.498;6.556;2023-03-16T05:55:51;5.70;1.00
8565;DHT22;4320;51.498;6.556;2023-03-16T05:58:17;5.80;1.00
8565;DHT22;4320;51.498;6.556;2023-03-16T06:00:42;5.80;1.00
8565;DHT22;4320;51.498;6.556;2023-03-16T06:03:11;5.80;1.00
8565;DHT22;4320;51.498;6.556;2023-03-16T06:05:37;5.80;1.00
8565;DHT22;4320;51.498;6.556;2023-03-16T06:08:03;5.80;1.00
8565;DHT22;4320;51.498;6.556;2023-03-16T06:10:29;5.70;1.00
8565;DHT22;4320;51.498;6.556;2023-03-16T06:12:54;5.70;1.00
8565;DHT22;4320;51.498;6.556;2023-03-16T06:15:20;5.80;1.00
8565;DHT22;4320;51.498;6.556;2023-03-16T06:17:49;5.80;1.00
8565;DHT22;4320;51.498;6.556;2023-03-16T06:20:15;5.80;1.00
8565;DHT22;4320;51.498;6.556;2023-03-16T06:22:42;5.80;1.00
8565;DHT22;4320;51.498;6.556;2023-03-16T06:25:09;5.80;1.00
8565;DHT22;4320;51.498;6.556;2023-03-16T06:27:36;5.80;1.00
8565;DHT22;4320;51.498;6.556;2023-03-16T06:30:04;5.80;1.00
8565;DHT22;4320;51.498;6.556;2023-03-16T06:32:30;5.90;1.00
8565;DHT22;4320;51.498;6.556;2023-03-16T06:34:56;5.90;1.00
8565;DHT22;4320;51.498;6.556;2023-03-16T06:37:24;5.90;1.00
8565;DHT22;4320;51.498;6.556;2023-03-16T06:39:49;5.90;1.00
8565;DHT22;4320;51.498;6.556;2023-03-16T06:42:15;6.00;1.00
8565;DHT22;4320;51.498;6.556;2023-03-16T06:44:41;6.00;1.00
8565;DHT22;4320;51.498;6.556;2023-03-16T06:47:07;6.10;1.00
8565;DHT22;4320;51.498;6.556;2023-03-16T06:49:33;6.20;1.00
8565;DHT22;4320;51.498;6.556;2023-03-16T06:51:58;6.30;1.00
8565;DHT22;4320;51.498;6.556;2023-03-16T06:54:25;6.40;1.00
8565;DHT22;4320;51.498;6.556;2023-03-16T06:56:51;6.50;1.00
8565;DHT22;4320;51.498;6.556;2023-03-16T06:59:16;6.60;1.00
8565;DHT22;4320;51.498;6.556;2023-03-16T07:01:42;6.50;1.00
8565;DHT22;4320;51.498;6.556;2023-03-16T07:04:09;6.50;1.00
8565;DHT22;4320;51.498;6.556;2023-03-16T07:06:35;6.40;1.00
8565;DHT22;4320;51.498;6.556;2023-03-16T07:09:00;6.50;1.00
8565;DHT22;4320;51.498;6.556;2023-03-16T07:11:26;6.50;1.00
8565;DHT22;4320;51.498;6.556;2023-03-16T07:13:52;6.50;1.00
8565;DHT22;4320;51.498;6.556;2023-03-16T07:16:17;6.50;1.00
8565;DHT22;4320;51.498;6.556;2023-03-16T07:18:43;6.60;1.00
8565;DHT22;4320;51.498;6.556;2023-03-16T07:21:09;6.60;1.00
8565;DHT22;4320;51.498;6.556;2023-03-16T07:23:35;6.60;1.00
8565;DHT22;4320;51.498;6.556;2023-03-16T07:26:01;6.70;1.00
8565;DHT22;4320;51.498;6.556;2023-03-16T07:28:28;6.70;1.00
8565;DHT22;4320;51.498;6.556;2023-03-16T07:30:54;6.60;1.00
8565;DHT22;4320;51.498;6.556;2023-03-16T07:33:20;6.60;1.00
8565;DHT22;4320;51.498;6.556;2023-03-16T07:35:46;6.60;1.00
8565;DHT22;4320;51.498;6.556;2023-03-16T07:38:12;6.70;1.00
8565;DHT22;4320;51.498;6.556;2023-03-16T07:40:40;6.60;1.00
8565;DHT22;4320;51.498;6.556;2023-03-16T07:43:06;6.60;1.00
8565;DHT22;4320;51.498;6.556;2023-03-16T07:45:31;6.60;1.00
8565;DHT22;4320;51.498;6.556;2023-03-16T07:47:57;6.60;1.00
8565;DHT22;4320;51.498;6.556;2023-03-16T07:50:23;6.60;1.00
8565;DHT22;4320;51.498;6.556;2023-03-16T07:52:49;6.60;1.00
8565;DHT22;4320;51.498;6.556;2023-03-16T07:55:15;6.60;1.00
8565;DHT22;4320;51.498;6.556;2023-03-16T07:57:40;6.60;1.00
8565;DHT22;4320;51.498;6.556;2023-03-16T08:00:08;6.60;1.00
8565;DHT22;4320;51.498;6.556;2023-03-16T08:02:34;6.70;1.00
8565;DHT22;4320;51.498;6.556;2023-03-16T08:04:59;6.70;1.00
8565;DHT22;4320;51.498;6.556;2023-03-16T08:07:25;6.70;1.00
8565;DHT22;4320;51.498;6.556;2023-03-16T08:09:51;6.70;1.00
8565;DHT22;4320;51.498;6.556;2023-03-16T08:12:17;6.70;1.00
8565;DHT22;4320;51.498;6.556;2023-03-16T08:14:42;6.80;1.00
8565;DHT22;4320;51.498;6.556;2023-03-16T08:17:10;6.80;1.00
8565;DHT22;4320;51.498;6.556;2023-03-16T08:19:37;6.80;1.00
8565;DHT22;4320;51.498;6.556;2023-03-16T08:22:03;6.90;1.00
8565;DHT22;4320;51.498;6.556;2023-03-16T08:24:30;6.80;1.00
8565;DHT22;4320;51.498;6.556;2023-03-16T08:26:57;6.80;1.00
8565;DHT22;4320;51.498;6.556;2023-03-16T08:29:24;6.90;1.00
8565;DHT22;4320;51.498;6.556;2023-03-16T08:31:51;6.90;1.00
8565;DHT22;4320;51.498;6.556;2023-03-16T08:34:18;7.00;1.00
8565;DHT22;4320;51.498;6.556;2023-03-16T08:36:43;7.00;1.00
8565;DHT22;4320;51.498;6.556;2023-03-16T08:39:09;7.00;1.00
8565;DHT22;4320;51.498;6.556;2023-03-16T08:41:35;7.10;1.00
8565;DHT22;4320;51.498;6.556;2023-03-16T08:44:01;7.10;1.00
8565;DHT22;4320;51.498;6.556;2023-03-16T08:46:27;7.10;1.00
8565;DHT22;4320;51.498;6.556;2023-03-16T08:48:53;7.20;1.00
8565;DHT22;4320;51.498;6.556;2023-03-16T08:51:20;7.30;1.00
8565;DHT22;4320;51.498;6.556;2023-03-16T08:53:45;7.30;1.00
8565;DHT22;4320;51.498;6.556;2023-03-16T08:56:13;7.30;1.00
8565;DHT22;4320;51.498;6.556;2023-03-16T08:58:39;7.40;1.00
8565;DHT22;4320;51.498;6.556;2023-03-16T09:01:10;7.40;1.00
8565;DHT22;4320;51.498;6.556;2023-03-16T09:03:37;7.50;1.00
8565;DHT22;4320;51.498;6.556;2023-03-16T09:06:05;7.40;1.00
8565;DHT22;4320;51.498;6.556;2023-03-16T09:08:31;7.50;1.00
8565;DHT22;4320;51.498;6.556;2023-03-16T09:11:01;7.60;1.00
8565;DHT22;4320;51.498;6.556;2023-03-16T09:13:28;7.70;1.00
8565;DHT22;4320;51.498;6.556;2023-03-16T09:15:55;7.60;1.00
8565;DHT22;4320;51.498;6.556;2023-03-16T09:18:21;7.60;1.00
8565;DHT22;4320;51.498;6.556;2023-03-16T09:20:48;7.60;1.00
8565;DHT22;4320;51.498;6.556;2023-03-16T09:23:14;7.70;1.00
8565;DHT22;4320;51.498;6.556;2023-03-16T09:25:40;7.80;1.00
8565;DHT22;4320;51.498;6.556;2023-03-16T09:28:06;8.00;1.00
8565;DHT22;4320;51.498;6.556;2023-03-16T09:30:31;8.00;1.00
8565;DHT22;4320;51.498;6.556;2023-03-16T09:32:57;8.00;1.00
8565;DHT22;4320;51.498;6.556;2023-03-16T09:35:23;8.00;1.00
8565;DHT22;4320;51.498;6.556;2023-03-16T09:37:49;8.10;1.00
8565;DHT22;4320;51.498;6.556;2023-03-16T09:40:26;7.90;1.00
8565;DHT22;4320;51.498;6.556;2023-03-16T09:48:24;8.00;1.00
8565;DHT22;4320;51.498;6.556;2023-03-16T09:50:53;8.00;1.00
8565;DHT22;4320;51.498;6.556;2023-03-16T09:53:28;8.10;1.00
8565;DHT22;4320;51.498;6.556;2023-03-16T09:58:25;8.10;1.00
8565;DHT22;4320;51.498;6.556;2023-03-16T10:04:23;8.10;1.00
8565;DHT22;4320;51.498;6.556;2023-03-16T10:07:10;8.30;1.00
8565;DHT22;4320;51.498;6.556;2023-03-16T10:12:07;8.40;1.00
8565;DHT22;4320;51.498;6.556;2023-03-16T10:14:53;8.50;1.00
8565;DHT22;4320;51.498;6.556;2023-03-16T10:17:27;8.50;1.00
8565;DHT22;4320;51.498;6.556;2023-03-16T10:20:03;8.40;1.00
8565;DHT22;4320;51.498;6.556;2023-03-16T10:22:38;8.40;1.00
8565;DHT22;4320;51.498;6.556;2023-03-16T10:27:41;8.60;1.00
8565;DHT22;4320;51.498;6.556;2023-03-16T10:30:23;8.70;1.00
8565;DHT22;4320;51.498;6.556;2023-03-16T10:32:52;9.00;1.00
8565;DHT22;4320;51.498;6.556;2023-03-16T10:37:52;9.30;1.00
8565;DHT22;4320;51.498;6.556;2023-03-16T10:40:18;9.50;1.00
8565;DHT22;4320;51.498;6.556;2023-03-16T10:42:45;9.60;1.00
8565;DHT22;4320;51.498;6.556;2023-03-16T10:45:31;9.70;1.00
8565;DHT22;4320;51.498;6.556;2023-03-16T10:48:18;9.80;1.00
8565;DHT22;4320;51.498;6.556;2023-03-16T10:50:50;9.90;1.00
8565;DHT22;4320;51.498;6.556;2023-03-16T10:53:24;10.00;1.00
8565;DHT22;4320;51.498;6.556;2023-03-16T10:55:59;10.00;1.00
8565;DHT22;4320;51.498;6.556;2023-03-16T10:58:31;10.10;1.00
8565;DHT22;4320;51.498;6.556;2023-03-16T11:00:58;10.10;1.00
8565;DHT22;4320;51.498;6.556;2023-03-16T11:03:29;10.10;1.00
8565;DHT22;4320;51.498;6.556;2023-03-16T11:06:07;10.50;1.00
8565;DHT22;4320;51.498;6.556;2023-03-16T11:08:41;10.70;1.00
8565;DHT22;4320;51.498;6.556;2023-03-16T11:11:10;11.10;1.00
8565;DHT22;4320;51.498;6.556;2023-03-16T11:13:43;11.00;1.00
8565;DHT22;4320;51.498;6.556;2023-03-16T11:18:51;10.90;1.00
8565;DHT22;4320;51.498;6.556;2023-03-16T11:21:47;11.00;1.00
8565;DHT22;4320;51.498;6.556;2023-03-16T11:32:47;12.00;1.00
8565;DHT22;4320;51.498;6.556;2023-03-16T11:35:18;12.20;1.00
8565;DHT22;4320;51.498;6.556;2023-03-16T11:38:14;12.40;1.00
8565;DHT22;4320;51.498;6.556;2023-03-16T11:43:45;12.50;1.00
8565;DHT22;4320;51.498;6.556;2023-03-16T11:51:53;12.70;1.00
8565;DHT22;4320;51.498;6.556;2023-03-16T11:59:46;12.50;1.00
8565;DHT22;4320;51.498;6.556;2023-03-16T12:08:08;12.00;1.00
8565;DHT22;4320;51.498;6.556;2023-03-16T12:11:01;11.80;1.00
8565;DHT22;4320;51.498;6.556;2023-03-16T12:16:30;11.80;1.00
8565;DHT22;4320;51.498;6.556;2023-03-16T12:19:00;11.80;1.00
8565;DHT22;4320;51.498;6.556;2023-03-16T12:21:38;11.70;1.00
8565;DHT22;4320;51.498;6.556;2023-03-16T12:24:13;11.70;1.00
8565;DHT22;4320;51.498;6.556;2023-03-16T12:26:41;11.70;1.00
8565;DHT22;4320;51.498;6.556;2023-03-16T12:31:53;11.70;1.00
8565;DHT22;4320;51.498;6.556;2023-03-16T12:34:49;11.80;1.00
8565;DHT22;4320;51.498;6.556;2023-03-16T12:45:48;12.00;1.00
8565;DHT22;4320;51.498;6.556;2023-03-16T12:48:32;12.20;1.00
8565;DHT22;4320;51.498;6.556;2023-03-16T12:51:02;12.20;1.00
8565;DHT22;4320;51.498;6.556;2023-03-16T12:53:52;12.10;1.00
8565;DHT22;4320;51.498;6.556;2023-03-16T12:56:33;12.20;1.00
8565;DHT22;4320;51.498;6.556;2023-03-16T12:59:05;12.30;1.00
8565;DHT22;4320;51.498;6.556;2023-03-16T13:01:41;12.20;1.00
8565;DHT22;4320;51.498;6.556;2023-03-16T13:04:14;12.30;1.00
8565;DHT22;4320;51.498;6.556;2023-03-16T13:07:01;12.50;1.00
8565;DHT22;4320;51.498;6.556;2023-03-16T13:09:29;12.80;1.00
8565;DHT22;4320;51.498;6.556;2023-03-16T13:11:57;13.20;1.00
8565;DHT22;4320;51.498;6.556;2023-03-16T13:14:39;13.30;1.00
8565;DHT22;4320;51.498;6.556;2023-03-16T13:19:42;13.80;1.00
8565;DHT22;4320;51.498;6.556;2023-03-16T13:27:39;14.40;1.00
8565;DHT22;4320;51.498;6.556;2023-03-16T13:32:40;14.30;1.00
8565;DHT22;4320;51.498;6.556;2023-03-16T13:35:10;14.30;1.00
8565;DHT22;4320;51.498;6.556;2023-03-16T13:37:39;14.10;1.00
8565;DHT22;4320;51.498;6.556;2023-03-16T13:40:21;13.70;1.00
8565;DHT22;4320;51.498;6.556;2023-03-16T13:42:50;13.80;1.00
8565;DHT22;4320;51.498;6.556;2023-03-16T13:45:31;13.60;1.00
8565;DHT22;4320;51.498;6.556;2023-03-16T13:47:59;13.50;1.00
8565;DHT22;4320;51.498;6.556;2023-03-16T13:50:25;13.40;1.00
8565;DHT22;4320;51.498;6.556;2023-03-16T13:52:59;13.50;1.00
8565;DHT22;4320;51.498;6.556;2023-03-16T13:55:35;13.50;1.00
8565;DHT22;4320;51.498;6.556;2023-03-16T13:58:03;13.40;1.00
8565;DHT22;4320;51.498;6.556;2023-03-16T14:00:34;13.40;1.00
8565;DHT22;4320;51.498;6.556;2023-03-16T14:03:17;13.40;1.00
8565;DHT22;4320;51.498;6.556;2023-03-16T14:05:44;13.50;1.00
8565;DHT22;4320;51.498;6.556;2023-03-16T14:08:18;13.60;1.00
8565;DHT22;4320;51.498;6.556;2023-03-16T14:10:45;13.60;1.00
8565;DHT22;4320;51.498;6.556;2023-03-16T14:13:32;13.50;1.00
8565;DHT22;4320;51.498;6.556;2023-03-16T14:16:12;13.50;1.00
8565;DHT22;4320;51.498;6.556;2023-03-16T14:18:40;13.70;1.00
8565;DHT22;4320;51.498;6.556;2023-03-16T14:21:18;13.70;1.00
8565;DHT22;4320;51.498;6.556;2023-03-16T14:23:47;13.70;1.00
8565;DHT22;4320;51.498;6.556;2023-03-16T14:26:17;13.80;1.00
8565;DHT22;4320;51.498;6.556;2023-03-16T14:29:00;13.60;1.00
8565;DHT22;4320;51.498;6.556;2023-03-16T14:31:37;13.60;1.00
8565;DHT22;4320;51.498;6.556;2023-03-16T14:34:35;13.70;1.00
8565;DHT22;4320;51.498;6.556;2023-03-16T14:37:06;13.70;1.00
8565;DHT22;4320;51.498;6.556;2023-03-16T14:39:32;13.60;1.00
8565;DHT22;4320;51.498;6.556;2023-03-16T14:42:01;13.50;1.00
8565;DHT22;4320;51.498;6.556;2023-03-16T14:44:30;13.50;1.00
8565;DHT22;4320;51.498;6.556;2023-03-16T14:46:57;13.50;1.00
8565;DHT22;4320;51.498;6.556;2023-03-16T14:49:28;13.40;1.00
8565;DHT22;4320;51.498;6.556;2023-03-16T14:51:59;13.50;1.00
8565;DHT22;4320;51.498;6.556;2023-03-16T14:54:27;13.50;1.00
8565;DHT22;4320;51.498;6.556;2023-03-16T14:56:57;13.50;1.00
8565;DHT22;4320;51.498;6.556;2023-03-16T14:59:23;13.50;1.00
8565;DHT22;4320;51.498;6.556;2023-03-16T15:01:50;13.40;1.00
8565;DHT22;4320;51.498;6.556;2023-03-16T15:04:24;13.40;1.00
8565;DHT22;4320;51.498;6.556;2023-03-16T15:06:50;13.40;1.00
8565;DHT22;4320;51.498;6.556;2023-03-16T15:09:37;13.40;1.00
8565;DHT22;4320;51.498;6.556;2023-03-16T15:12:10;13.30;1.00
8565;DHT22;4320;51.498;6.556;2023-03-16T15:14:37;13.40;1.00
8565;DHT22;4320;51.498;6.556;2023-03-16T15:17:21;13.40;1.00
8565;DHT22;4320;51.498;6.556;2023-03-16T15:19:47;13.40;1.00
8565;DHT22;4320;51.498;6.556;2023-03-16T15:22:14;13.40;1.00
8565;DHT22;4320;51.498;6.556;2023-03-16T15:24:43;13.40;1.00
8565;DHT22;4320;51.498;6.556;2023-03-16T15:27:18;13.40;1.00
8565;DHT22;4320;51.498;6.556;2023-03-16T15:29:45;13.40;1.00
8565;DHT22;4320;51.498;6.556;2023-03-16T15:32:12;13.30;1.00
8565;DHT22;4320;51.498;6.556;2023-03-16T15:34:40;13.40;1.00
8565;DHT22;4320;51.498;6.556;2023-03-16T15:37:12;13.30;1.00
8565;DHT22;4320;51.498;6.556;2023-03-16T15:39:38;13.30;1.00
8565;DHT22;4320;51.498;6.556;2023-03-16T15:42:24;13.30;1.00
8565;DHT22;4320;51.498;6.556;2023-03-16T15:44:51;13.20;1.00
8565;DHT22;4320;51.498;6.556;2023-03-16T15:47:17;13.20;1.00
8565;DHT22;4320;51.498;6.556;2023-03-16T15:49:43;13.20;1.00
8565;DHT22;4320;51.498;6.556;2023-03-16T15:52:21;13.10;1.00
8565;DHT22;4320;51.498;6.556;2023-03-16T15:54:48;13.10;1.00
8565;DHT22;4320;51.498;6.556;2023-03-16T15:57:14;13.10;1.00
8565;DHT22;4320;51.498;6.556;2023-03-16T15:59:40;13.00;1.00
8565;DHT22;4320;51.498;6.556;2023-03-16T16:02:38;13.10;1.00
8565;DHT22;4320;51.498;6.556;2023-03-16T16:05:04;12.90;1.00
8565;DHT22;4320;51.498;6.556;2023-03-16T16:07:30;12.90;1.00
8565;DHT22;4320;51.498;6.556;2023-03-16T16:09:55;12.90;1.00
8565;DHT22;4320;51.498;6.556;2023-03-16T16:12:21;12.90;1.00
8565;DHT22;4320;51.498;6.556;2023-03-16T16:14:51;12.90;1.00
8565;DHT22;4320;51.498;6.556;2023-03-16T16:17:17;12.90;1.00
8565;DHT22;4320;51.498;6.556;2023-03-16T16:19:52;12.90;1.00
8565;DHT22;4320;51.498;6.556;2023-03-16T16:22:18;12.80;1.00
8565;DHT22;4320;51.498;6.556;2023-03-16T16:24:45;12.90;1.00
8565;DHT22;4320;51.498;6.556;2023-03-16T16:27:11;12.70;1.00
8565;DHT22;4320;51.498;6.556;2023-03-16T16:29:37;12.70;1.00
8565;DHT22;4320;51.498;6.556;2023-03-16T16:32:23;12.60;1.00
8565;DHT22;4320;51.498;6.556;2023-03-16T16:34:48;12.60;1.00
8565;DHT22;4320;51.498;6.556;2023-03-16T16:37:15;12.60;1.00
8565;DHT22;4320;51.498;6.556;2023-03-16T16:39:40;12.60;1.00
8565;DHT22;4320;51.498;6.556;2023-03-16T16:42:14;12.60;1.00
8565;DHT22;4320;51.498;6.556;2023-03-16T16:44:41;12.50;1.00
8565;DHT22;4320;51.498;6.556;2023-03-16T16:47:18;12.40;1.00
8565;DHT22;4320;51.498;6.556;2023-03-16T16:49:45;12.40;1.00
8565;DHT22;4320;51.498;6.556;2023-03-16T16:52:15;12.40;1.00
8565;DHT22;4320;51.498;6.556;2023-03-16T16:54:40;12.40;1.00
8565;DHT22;4320;51.498;6.556;2023-03-16T16:57:15;12.30;1.00
8565;DHT22;4320;51.498;6.556;2023-03-16T16:59:42;12.30;1.00
8565;DHT22;4320;51.498;6.556;2023-03-16T17:02:27;12.30;1.00
8565;DHT22;4320;51.498;6.556;2023-03-16T17:04:54;12.20;1.00
8565;DHT22;4320;51.498;6.556;2023-03-16T17:07:20;12.20;1.00
8565;DHT22;4320;51.498;6.556;2023-03-16T17:09:46;12.20;1.00
8565;DHT22;4320;51.498;6.556;2023-03-16T17:12:20;12.20;1.00
8565;DHT22;4320;51.498;6.556;2023-03-16T17:14:47;12.20;1.00
8565;DHT22;4320;51.498;6.556;2023-03-16T17:17:14;12.10;1.00
8565;DHT22;4320;51.498;6.556;2023-03-16T17:19:44;12.10;1.00
8565;DHT22;4320;51.498;6.556;2023-03-16T17:22:29;12.10;1.00
8565;DHT22;4320;51.498;6.556;2023-03-16T17:24:54;11.90;1.00
8565;DHT22;4320;51.498;6.556;2023-03-16T17:27:26;11.90;1.00
8565;DHT22;4320;51.498;6.556;2023-03-16T17:29:53;11.90;1.00
8565;DHT22;4320;51.498;6.556;2023-03-16T17:32:20;11.90;1.00
8565;DHT22;4320;51.498;6.556;2023-03-16T17:34:47;11.90;1.00
8565;DHT22;4320;51.498;6.556;2023-03-16T17:37:21;11.90;1.00
8565;DHT22;4320;51.498;6.556;2023-03-16T17:39:46;11.80;1.00
8565;DHT22;4320;51.498;6.556;2023-03-16T17:42:15;11.80;1.00
8565;DHT22;4320;51.498;6.556;2023-03-16T17:44:45;11.80;1.00
8565;DHT22;4320;51.498;6.556;2023-03-16T17:47:21;11.70;1.00
8565;DHT22;4320;51.498;6.556;2023-03-16T17:49:47;11.60;1.00
8565;DHT22;4320;51.498;6.556;2023-03-16T17:52:21;11.70;1.00
8565;DHT22;4320;51.498;6.556;2023-03-16T17:54:48;11.60;1.00
8565;DHT22;4320;51.498;6.556;2023-03-16T17:57:16;11.60;1.00
8565;DHT22;4320;51.498;6.556;2023-03-16T17:59:46;11.50;1.00
8565;DHT22;4320;51.498;6.556;2023-03-16T18:02:37;11.50;1.00
8565;DHT22;4320;51.498;6.556;2023-03-16T18:05:04;11.40;1.00
8565;DHT22;4320;51.498;6.556;2023-03-16T18:07:33;11.40;1.00